»·PEaware :: N314PW KIFP-KHND

N314PW :: KIFP-KHND

FLIGHT INFORMATION

Flight Status: Arrived
Operator: Privately registered:
United States
More flights under this callsign
Pilot: Todd P. (5750)
Aircraft: PIPER PA-28R-201 ARROW
(P28R)
More flights by this aircraft type
Origin: KIFP Laughlin/Bullhead Intl
United States
Destination: KHND Henderson
United States
More flights between these airports :: More routes between these airports
Route: +EED V237 BLD
File this flight plan on PilotEdge
Remarks: odp
Altitude:
(Current/Filed)
8,000ft
Speed:
(Current/Filed)
135kts
Departed: 05-Jun-16 10:23 AM
Arrived: 05-Jun-16 11:01 AM
Distance/Time
Traveled:
57nm/0:38
Distance/Time
To Go:
Arrived

Flight Plot

Page will automatically refresh every two minutes.


Map Options




Map Legend


Flown Route
Filed Route
Departure Airport
Arrival Airport
Navaid (VOR, NDB)
Fix

Horizontal Profiles

Position Reports

Time Latitude Longitude Heading Altitude Ground
Speed
05-Jun-16 10:05 35.162687 -114.557679 84 705ft 0kts
05-Jun-16 10:06 35.162687 -114.557679 84 705ft 0kts
05-Jun-16 10:07 35.162687 -114.557679 84 705ft 0kts
05-Jun-16 10:08 35.162687 -114.557679 84 705ft 0kts
05-Jun-16 10:09 35.162687 -114.557679 84 705ft 0kts
05-Jun-16 10:10 35.162687 -114.557679 84 705ft 0kts
05-Jun-16 10:11 35.162687 -114.557679 84 705ft 0kts
05-Jun-16 10:12 35.162687 -114.557679 84 705ft 0kts
05-Jun-16 10:13 35.162687 -114.557679 84 705ft 0kts
05-Jun-16 10:14 35.162687 -114.557679 84 705ft 0kts
05-Jun-16 10:15 35.162934 -114.558073 278 704ft 12kts
05-Jun-16 10:16 35.166504 -114.559135 266 705ft 0kts
05-Jun-16 10:17 35.166504 -114.559135 266 705ft 0kts
05-Jun-16 10:18 35.166504 -114.559135 266 705ft 0kts
05-Jun-16 10:19 35.165302 -114.560074 169 705ft 32kts
05-Jun-16 10:20 35.144040 -114.556711 166 1540ft 86kts
05-Jun-16 10:21 35.120720 -114.549546 167 2628ft 91kts
05-Jun-16 10:22 35.094725 -114.541072 175 3651ft 101kts
05-Jun-16 10:23 35.067353 -114.536451 176 4720ft 95kts
05-Jun-16 10:24 35.042492 -114.531561 175 5474ft 88kts
05-Jun-16 10:25 35.019404 -114.526985 175 6166ft 81kts
05-Jun-16 10:26 34.997542 -114.525088 213 6751ft 79kts
05-Jun-16 10:27 35.010032 -114.542061 3 7269ft 106kts
05-Jun-16 10:28 35.039231 -114.543299 344 7782ft 104kts
05-Jun-16 10:29 35.068939 -114.552258 338 8042ft 129kts
05-Jun-16 10:30 35.108768 -114.566471 338 8032ft 163kts
05-Jun-16 10:31 35.153513 -114.583740 338 8028ft 172kts
05-Jun-16 10:32 35.199697 -114.601973 337 8027ft 174kts
05-Jun-16 10:33 35.245992 -114.620352 337 8027ft 175kts
05-Jun-16 10:34 35.292254 -114.638750 337 8027ft 175kts
05-Jun-16 10:35 35.339618 -114.654146 341 8028ft 176kts
05-Jun-16 10:36 35.387050 -114.669200 341 8028ft 176kts
05-Jun-16 10:37 35.434522 -114.684177 341 8028ft 176kts
05-Jun-16 10:38 35.481888 -114.699170 341 8027ft 174kts
05-Jun-16 10:39 35.528406 -114.713955 341 8030ft 172kts
05-Jun-16 10:40 35.573508 -114.728245 340 8053ft 164kts
05-Jun-16 10:41 35.615253 -114.741601 340 8079ft 159kts
05-Jun-16 10:42 35.657019 -114.754994 340 8102ft 155kts
05-Jun-16 10:43 35.698512 -114.768287 340 8117ft 153kts
05-Jun-16 10:44 35.740020 -114.781636 340 8073ft 154kts
05-Jun-16 10:45 35.784519 -114.795955 341 7382ft 178kts
05-Jun-16 10:46 35.833248 -114.811522 343 6488ft 182kts
05-Jun-16 10:47 35.878819 -114.825880 342 6383ft 158kts
05-Jun-16 10:48 35.920473 -114.839350 342 6385ft 153kts
05-Jun-16 10:49 35.958210 -114.858405 290 6378ft 148kts
05-Jun-16 10:50 35.967104 -114.908132 292 6385ft 148kts
05-Jun-16 10:51 35.989835 -114.947590 265 6349ft 147kts
05-Jun-16 10:52 35.977686 -114.997032 265 5958ft 149kts
05-Jun-16 10:53 35.974106 -115.046509 259 5757ft 144kts
05-Jun-16 10:54 35.967873 -115.085810 259 5467ft 105kts
05-Jun-16 10:55 35.974991 -115.114450 341 4556ft 95kts
05-Jun-16 10:56 35.999291 -115.117049 301 3361ft 80kts
05-Jun-16 10:57 35.995769 -115.135198 193 2882ft 81kts
05-Jun-16 10:58 35.977445 -115.136160 267 2496ft 0kts

Navigation Log

Ident Type
Flight plan parsing failed, navigation log unavailable